sensor_id;sensor_type;location;lat;lon;timestamp;P1;durP1;ratioP1;P2;durP2;ratioP2
48861;SDS011;34681;49.188;-0.374;2023-07-13T00:02:18;7.00;;;2.57;;
48861;SDS011;34681;49.188;-0.374;2023-07-13T00:04:43;2.43;;;2.20;;
48861;SDS011;34681;49.188;-0.374;2023-07-13T00:07:08;4.53;;;2.50;;
48861;SDS011;34681;49.188;-0.374;2023-07-13T00:09:34;4.63;;;2.80;;
48861;SDS011;34681;49.188;-0.374;2023-07-13T00:12:00;6.00;;;2.40;;
48861;SDS011;34681;49.188;-0.374;2023-07-13T00:14:26;5.27;;;3.00;;
48861;SDS011;34681;49.188;-0.374;2023-07-13T00:16:53;3.17;;;2.33;;
48861;SDS011;34681;49.188;-0.374;2023-07-13T00:19:19;5.60;;;2.87;;
48861;SDS011;34681;49.188;-0.374;2023-07-13T00:21:45;4.83;;;2.60;;
48861;SDS011;34681;49.188;-0.374;2023-07-13T00:24:11;5.80;;;3.00;;
48861;SDS011;34681;49.188;-0.374;2023-07-13T00:26:38;3.80;;;2.70;;
48861;SDS011;34681;49.188;-0.374;2023-07-13T00:29:04;7.40;;;2.60;;
48861;SDS011;34681;49.188;-0.374;2023-07-13T00:31:33;4.83;;;2.30;;
48861;SDS011;34681;49.188;-0.374;2023-07-13T00:33:59;10.20;;;3.33;;
48861;SDS011;34681;49.188;-0.374;2023-07-13T00:36:25;3.37;;;2.33;;
48861;SDS011;34681;49.188;-0.374;2023-07-13T00:38:51;6.67;;;2.93;;
48861;SDS011;34681;49.188;-0.374;2023-07-13T00:41:17;4.70;;;3.13;;
48861;SDS011;34681;49.188;-0.374;2023-07-13T00:43:43;5.03;;;2.60;;
48861;SDS011;34681;49.188;-0.374;2023-07-13T00:46:11;4.10;;;1.90;;
48861;SDS011;34681;49.188;-0.374;2023-07-13T00:48:40;4.93;;;2.20;;
48861;SDS011;34681;49.188;-0.374;2023-07-13T00:51:06;2.63;;;2.10;;
48861;SDS011;34681;49.188;-0.374;2023-07-13T00:53:31;6.13;;;2.67;;
48861;SDS011;34681;49.188;-0.374;2023-07-13T00:55:58;4.13;;;2.60;;
48861;SDS011;34681;49.188;-0.374;2023-07-13T00:58:25;16.70;;;4.57;;
48861;SDS011;34681;49.188;-0.374;2023-07-13T01:00:51;3.47;;;2.20;;
48861;SDS011;34681;49.188;-0.374;2023-07-13T01:03:17;4.47;;;2.50;;
48861;SDS011;34681;49.188;-0.374;2023-07-13T01:05:43;4.50;;;2.47;;
48861;SDS011;34681;49.188;-0.374;2023-07-13T01:08:12;6.07;;;2.83;;
48861;SDS011;34681;49.188;-0.374;2023-07-13T01:10:37;3.27;;;2.40;;
48861;SDS011;34681;49.188;-0.374;2023-07-13T01:13:07;3.93;;;2.40;;
48861;SDS011;34681;49.188;-0.374;2023-07-13T01:18:00;5.70;;;3.13;;
48861;SDS011;34681;49.188;-0.374;2023-07-13T01:20:26;12.30;;;3.20;;
48861;SDS011;34681;49.188;-0.374;2023-07-13T01:22:51;5.87;;;2.60;;
48861;SDS011;34681;49.188;-0.374;2023-07-13T01:25:16;7.60;;;3.13;;
48861;SDS011;34681;49.188;-0.374;2023-07-13T01:27:43;6.50;;;2.70;;
48861;SDS011;34681;49.188;-0.374;2023-07-13T01:30:08;5.13;;;2.70;;
48861;SDS011;34681;49.188;-0.374;2023-07-13T01:32:34;4.33;;;2.40;;
48861;SDS011;34681;49.188;-0.374;2023-07-13T01:34:59;3.20;;;2.10;;
48861;SDS011;34681;49.188;-0.374;2023-07-13T01:37:25;4.70;;;2.33;;
48861;SDS011;34681;49.188;-0.374;2023-07-13T01:39:52;4.40;;;2.03;;
48861;SDS011;34681;49.188;-0.374;2023-07-13T01:42:18;3.60;;;2.50;;
48861;SDS011;34681;49.188;-0.374;2023-07-13T01:44:44;9.97;;;2.40;;
48861;SDS011;34681;49.188;-0.374;2023-07-13T01:47:09;6.43;;;2.37;;
48861;SDS011;34681;49.188;-0.374;2023-07-13T01:49:35;5.27;;;2.67;;
48861;SDS011;34681;49.188;-0.374;2023-07-13T01:52:02;3.40;;;2.53;;
48861;SDS011;34681;49.188;-0.374;2023-07-13T01:54:28;10.07;;;2.90;;
48861;SDS011;34681;49.188;-0.374;2023-07-13T01:56:53;4.27;;;2.13;;
48861;SDS011;34681;49.188;-0.374;2023-07-13T01:59:18;3.90;;;2.40;;
48861;SDS011;34681;49.188;-0.374;2023-07-13T02:01:44;3.20;;;2.10;;
48861;SDS011;34681;49.188;-0.374;2023-07-13T02:04:09;3.37;;;2.23;;
48861;SDS011;34681;49.188;-0.374;2023-07-13T02:06:35;3.93;;;2.43;;
48861;SDS011;34681;49.188;-0.374;2023-07-13T02:09:01;5.83;;;2.80;;
48861;SDS011;34681;49.188;-0.374;2023-07-13T02:11:26;6.50;;;2.17;;
48861;SDS011;34681;49.188;-0.374;2023-07-13T02:13:57;4.77;;;2.07;;
48861;SDS011;34681;49.188;-0.374;2023-07-13T02:16:23;6.30;;;2.50;;
48861;SDS011;34681;49.188;-0.374;2023-07-13T02:18:49;6.73;;;2.87;;
48861;SDS011;34681;49.188;-0.374;2023-07-13T02:21:17;2.80;;;2.27;;
48861;SDS011;34681;49.188;-0.374;2023-07-13T02:23:42;4.13;;;2.70;;
48861;SDS011;34681;49.188;-0.374;2023-07-13T02:26:08;8.10;;;3.17;;
48861;SDS011;34681;49.188;-0.374;2023-07-13T02:28:33;4.30;;;2.43;;
48861;SDS011;34681;49.188;-0.374;2023-07-13T02:31:08;4.70;;;1.87;;
48861;SDS011;34681;49.188;-0.374;2023-07-13T02:33:34;4.80;;;2.50;;
48861;SDS011;34681;49.188;-0.374;2023-07-13T02:35:59;4.90;;;2.37;;
48861;SDS011;34681;49.188;-0.374;2023-07-13T02:38:25;6.10;;;3.07;;
48861;SDS011;34681;49.188;-0.374;2023-07-13T02:40:50;6.30;;;2.30;;
48861;SDS011;34681;49.188;-0.374;2023-07-13T02:43:16;3.10;;;2.07;;
48861;SDS011;34681;49.188;-0.374;2023-07-13T02:45:45;4.53;;;2.50;;
48861;SDS011;34681;49.188;-0.374;2023-07-13T02:48:11;4.90;;;2.47;;
48861;SDS011;34681;49.188;-0.374;2023-07-13T02:50:36;4.43;;;2.80;;
48861;SDS011;34681;49.188;-0.374;2023-07-13T02:53:01;7.43;;;2.10;;
48861;SDS011;34681;49.188;-0.374;2023-07-13T02:55:27;5.83;;;2.60;;
48861;SDS011;34681;49.188;-0.374;2023-07-13T02:57:52;5.07;;;2.60;;
48861;SDS011;34681;49.188;-0.374;2023-07-13T03:00:19;6.77;;;2.83;;
48861;SDS011;34681;49.188;-0.374;2023-07-13T03:02:45;7.70;;;2.63;;
48861;SDS011;34681;49.188;-0.374;2023-07-13T03:05:10;3.70;;;2.50;;
48861;SDS011;34681;49.188;-0.374;2023-07-13T03:07:37;6.40;;;2.60;;
48861;SDS011;34681;49.188;-0.374;2023-07-13T03:10:03;4.90;;;2.50;;
48861;SDS011;34681;49.188;-0.374;2023-07-13T03:12:29;4.67;;;3.03;;
48861;SDS011;34681;49.188;-0.374;2023-07-13T03:14:54;3.90;;;2.60;;
48861;SDS011;34681;49.188;-0.374;2023-07-13T03:17:19;4.67;;;2.47;;
48861;SDS011;34681;49.188;-0.374;2023-07-13T03:19:45;3.20;;;2.30;;
48861;SDS011;34681;49.188;-0.374;2023-07-13T03:22:14;7.43;;;2.60;;
48861;SDS011;34681;49.188;-0.374;2023-07-13T03:24:40;5.60;;;2.27;;
48861;SDS011;34681;49.188;-0.374;2023-07-13T03:27:06;6.33;;;2.23;;
48861;SDS011;34681;49.188;-0.374;2023-07-13T03:29:31;8.10;;;3.30;;
48861;SDS011;34681;49.188;-0.374;2023-07-13T03:31:56;3.50;;;2.43;;
48861;SDS011;34681;49.188;-0.374;2023-07-13T03:34:22;3.70;;;2.53;;
48861;SDS011;34681;49.188;-0.374;2023-07-13T03:36:47;7.87;;;3.23;;
48861;SDS011;34681;49.188;-0.374;2023-07-13T03:39:13;4.30;;;2.30;;
48861;SDS011;34681;49.188;-0.374;2023-07-13T03:41:38;4.30;;;2.07;;
48861;SDS011;34681;49.188;-0.374;2023-07-13T03:44:04;3.87;;;2.27;;
48861;SDS011;34681;49.188;-0.374;2023-07-13T03:46:29;3.60;;;2.80;;
48861;SDS011;34681;49.188;-0.374;2023-07-13T03:48:55;4.20;;;2.17;;
48861;SDS011;34681;49.188;-0.374;2023-07-13T03:51:20;1.87;;;1.77;;
48861;SDS011;34681;49.188;-0.374;2023-07-13T03:53:46;2.93;;;2.17;;
48861;SDS011;34681;49.188;-0.374;2023-07-13T03:56:13;3.97;;;2.43;;
48861;SDS011;34681;49.188;-0.374;2023-07-13T03:58:42;3.07;;;2.27;;
48861;SDS011;34681;49.188;-0.374;2023-07-13T04:01:10;4.40;;;2.70;;
48861;SDS011;34681;49.188;-0.374;2023-07-13T04:03:36;3.33;;;2.60;;
48861;SDS011;34681;49.188;-0.374;2023-07-13T04:06:03;3.37;;;2.27;;
48861;SDS011;34681;49.188;-0.374;2023-07-13T04:08:31;3.77;;;2.47;;
48861;SDS011;34681;49.188;-0.374;2023-07-13T04:11:01;4.80;;;2.37;;
48861;SDS011;34681;49.188;-0.374;2023-07-13T04:13:28;3.53;;;2.40;;
48861;SDS011;34681;49.188;-0.374;2023-07-13T04:15:53;5.00;;;2.30;;
48861;SDS011;34681;49.188;-0.374;2023-07-13T04:18:19;3.47;;;2.33;;
48861;SDS011;34681;49.188;-0.374;2023-07-13T04:20:49;2.50;;;2.30;;
48861;SDS011;34681;49.188;-0.374;2023-07-13T04:23:15;4.60;;;2.00;;
48861;SDS011;34681;49.188;-0.374;2023-07-13T04:25:47;3.43;;;2.33;;
48861;SDS011;34681;49.188;-0.374;2023-07-13T04:28:17;2.57;;;1.80;;
48861;SDS011;34681;49.188;-0.374;2023-07-13T04:30:44;3.87;;;2.00;;
48861;SDS011;34681;49.188;-0.374;2023-07-13T04:33:10;4.97;;;2.90;;
48861;SDS011;34681;49.188;-0.374;2023-07-13T04:35:36;2.77;;;2.33;;
48861;SDS011;34681;49.188;-0.374;2023-07-13T04:38:02;5.30;;;2.67;;
48861;SDS011;34681;49.188;-0.374;2023-07-13T04:40:28;4.67;;;2.60;;
48861;SDS011;34681;49.188;-0.374;2023-07-13T04:42:54;3.77;;;2.70;;
48861;SDS011;34681;49.188;-0.374;2023-07-13T04:45:20;4.30;;;2.43;;
48861;SDS011;34681;49.188;-0.374;2023-07-13T04:47:45;6.57;;;2.60;;
48861;SDS011;34681;49.188;-0.374;2023-07-13T04:50:12;5.40;;;2.47;;
48861;SDS011;34681;49.188;-0.374;2023-07-13T04:52:43;4.20;;;2.20;;
48861;SDS011;34681;49.188;-0.374;2023-07-13T04:55:09;5.57;;;2.37;;
48861;SDS011;34681;49.188;-0.374;2023-07-13T04:57:34;4.83;;;2.60;;
48861;SDS011;34681;49.188;-0.374;2023-07-13T05:00:00;2.97;;;2.40;;
48861;SDS011;34681;49.188;-0.374;2023-07-13T05:02:26;7.67;;;2.90;;
48861;SDS011;34681;49.188;-0.374;2023-07-13T05:04:53;2.70;;;2.50;;
48861;SDS011;34681;49.188;-0.374;2023-07-13T05:07:18;4.63;;;2.03;;
48861;SDS011;34681;49.188;-0.374;2023-07-13T05:09:44;5.07;;;2.40;;
48861;SDS011;34681;49.188;-0.374;2023-07-13T05:12:09;4.40;;;2.27;;
48861;SDS011;34681;49.188;-0.374;2023-07-13T05:14:34;4.00;;;2.60;;
48861;SDS011;34681;49.188;-0.374;2023-07-13T05:17:00;2.40;;;2.10;;
48861;SDS011;34681;49.188;-0.374;2023-07-13T05:19:26;4.20;;;2.23;;
48861;SDS011;34681;49.188;-0.374;2023-07-13T05:21:51;4.07;;;2.00;;
48861;SDS011;34681;49.188;-0.374;2023-07-13T05:24:17;4.10;;;2.33;;
48861;SDS011;34681;49.188;-0.374;2023-07-13T05:26:43;4.37;;;2.30;;
48861;SDS011;34681;49.188;-0.374;2023-07-13T05:29:08;4.87;;;1.90;;
48861;SDS011;34681;49.188;-0.374;2023-07-13T05:31:33;7.10;;;2.63;;
48861;SDS011;34681;49.188;-0.374;2023-07-13T05:33:59;3.90;;;2.20;;
48861;SDS011;34681;49.188;-0.374;2023-07-13T05:36:24;2.80;;;2.07;;
48861;SDS011;34681;49.188;-0.374;2023-07-13T05:38:50;2.80;;;2.20;;
48861;SDS011;34681;49.188;-0.374;2023-07-13T05:41:15;3.93;;;2.40;;
48861;SDS011;34681;49.188;-0.374;2023-07-13T05:43:40;3.63;;;2.43;;
48861;SDS011;34681;49.188;-0.374;2023-07-13T05:46:06;4.43;;;2.70;;
48861;SDS011;34681;49.188;-0.374;2023-07-13T05:48:31;2.20;;;2.00;;
48861;SDS011;34681;49.188;-0.374;2023-07-13T05:50:56;2.73;;;2.53;;
48861;SDS011;34681;49.188;-0.374;2023-07-13T05:53:22;2.60;;;2.10;;
48861;SDS011;34681;49.188;-0.374;2023-07-13T05:55:47;4.80;;;2.17;;
48861;SDS011;34681;49.188;-0.374;2023-07-13T05:58:15;3.40;;;2.63;;
48861;SDS011;34681;49.188;-0.374;2023-07-13T06:00:42;3.50;;;2.40;;
48861;SDS011;34681;49.188;-0.374;2023-07-13T06:03:07;3.77;;;2.70;;
48861;SDS011;34681;49.188;-0.374;2023-07-13T06:05:33;6.53;;;2.57;;
48861;SDS011;34681;49.188;-0.374;2023-07-13T06:07:59;3.57;;;2.40;;
48861;SDS011;34681;49.188;-0.374;2023-07-13T06:10:25;4.90;;;2.23;;
48861;SDS011;34681;49.188;-0.374;2023-07-13T06:12:51;3.03;;;2.40;;
48861;SDS011;34681;49.188;-0.374;2023-07-13T06:15:16;3.60;;;2.43;;
48861;SDS011;34681;49.188;-0.374;2023-07-13T06:17:42;6.30;;;2.70;;
48861;SDS011;34681;49.188;-0.374;2023-07-13T06:20:07;6.97;;;2.73;;
48861;SDS011;34681;49.188;-0.374;2023-07-13T06:22:33;3.73;;;2.27;;
48861;SDS011;34681;49.188;-0.374;2023-07-13T06:24:58;5.50;;;2.93;;
48861;SDS011;34681;49.188;-0.374;2023-07-13T06:27:23;3.97;;;2.37;;
48861;SDS011;34681;49.188;-0.374;2023-07-13T06:29:49;2.63;;;1.93;;
48861;SDS011;34681;49.188;-0.374;2023-07-13T06:32:14;5.47;;;2.37;;
48861;SDS011;34681;49.188;-0.374;2023-07-13T06:34:40;5.50;;;2.10;;
48861;SDS011;34681;49.188;-0.374;2023-07-13T06:37:05;4.53;;;3.43;;
48861;SDS011;34681;49.188;-0.374;2023-07-13T06:39:31;4.87;;;2.10;;
48861;SDS011;34681;49.188;-0.374;2023-07-13T06:41:57;5.07;;;2.20;;
48861;SDS011;34681;49.188;-0.374;2023-07-13T06:44:22;3.03;;;2.57;;
48861;SDS011;34681;49.188;-0.374;2023-07-13T06:46:47;3.47;;;2.40;;
48861;SDS011;34681;49.188;-0.374;2023-07-13T06:49:13;4.57;;;2.63;;
48861;SDS011;34681;49.188;-0.374;2023-07-13T06:51:38;3.23;;;2.47;;
48861;SDS011;34681;49.188;-0.374;2023-07-13T06:54:03;2.23;;;2.00;;
48861;SDS011;34681;49.188;-0.374;2023-07-13T06:56:29;3.90;;;2.40;;
48861;SDS011;34681;49.188;-0.374;2023-07-13T06:58:54;2.57;;;2.20;;
48861;SDS011;34681;49.188;-0.374;2023-07-13T07:01:20;4.07;;;2.63;;
48861;SDS011;34681;49.188;-0.374;2023-07-13T07:03:45;6.37;;;2.50;;
48861;SDS011;34681;49.188;-0.374;2023-07-13T07:06:19;2.07;;;1.93;;
48861;SDS011;34681;49.188;-0.374;2023-07-13T07:08:51;2.10;;;1.83;;
48861;SDS011;34681;49.188;-0.374;2023-07-13T07:11:19;4.77;;;2.03;;
48861;SDS011;34681;49.188;-0.374;2023-07-13T07:13:47;5.90;;;2.97;;
48861;SDS011;34681;49.188;-0.374;2023-07-13T07:16:13;1.77;;;1.67;;
48861;SDS011;34681;49.188;-0.374;2023-07-13T07:18:38;4.00;;;3.00;;
48861;SDS011;34681;49.188;-0.374;2023-07-13T07:21:04;1.90;;;1.80;;
48861;SDS011;34681;49.188;-0.374;2023-07-13T07:23:29;2.73;;;2.00;;
48861;SDS011;34681;49.188;-0.374;2023-07-13T07:25:55;2.00;;;1.80;;
48861;SDS011;34681;49.188;-0.374;2023-07-13T07:28:20;5.43;;;2.00;;
48861;SDS011;34681;49.188;-0.374;2023-07-13T07:30:46;2.87;;;2.00;;
48861;SDS011;34681;49.188;-0.374;2023-07-13T07:33:13;2.40;;;2.03;;
48861;SDS011;34681;49.188;-0.374;2023-07-13T07:35:39;4.13;;;1.87;;
48861;SDS011;34681;49.188;-0.374;2023-07-13T07:38:04;2.93;;;2.03;;
48861;SDS011;34681;49.188;-0.374;2023-07-13T07:40:30;5.20;;;2.17;;
48861;SDS011;34681;49.188;-0.374;2023-07-13T07:42:56;4.30;;;2.03;;
48861;SDS011;34681;49.188;-0.374;2023-07-13T07:45:22;1.50;;;1.40;;
48861;SDS011;34681;49.188;-0.374;2023-07-13T07:47:47;2.37;;;2.07;;
48861;SDS011;34681;49.188;-0.374;2023-07-13T07:50:13;1.87;;;1.67;;
48861;SDS011;34681;49.188;-0.374;2023-07-13T07:52:38;1.70;;;1.50;;
48861;SDS011;34681;49.188;-0.374;2023-07-13T07:55:05;2.73;;;1.37;;
48861;SDS011;34681;49.188;-0.374;2023-07-13T07:57:31;2.33;;;1.47;;
48861;SDS011;34681;49.188;-0.374;2023-07-13T07:59:56;1.87;;;1.30;;
48861;SDS011;34681;49.188;-0.374;2023-07-13T08:02:22;1.80;;;1.30;;
48861;SDS011;34681;49.188;-0.374;2023-07-13T08:04:49;2.80;;;1.57;;
48861;SDS011;34681;49.188;-0.374;2023-07-13T08:07:14;1.50;;;1.40;;
48861;SDS011;34681;49.188;-0.374;2023-07-13T08:09:39;2.17;;;1.43;;
48861;SDS011;34681;49.188;-0.374;2023-07-13T08:12:05;2.03;;;1.27;;
48861;SDS011;34681;49.188;-0.374;2023-07-13T08:14:31;1.43;;;1.30;;
48861;SDS011;34681;49.188;-0.374;2023-07-13T08:16:56;4.13;;;1.60;;
48861;SDS011;34681;49.188;-0.374;2023-07-13T08:19:24;1.53;;;1.43;;
48861;SDS011;34681;49.188;-0.374;2023-07-13T08:21:49;2.83;;;1.40;;
48861;SDS011;34681;49.188;-0.374;2023-07-13T08:24:14;1.80;;;1.70;;
48861;SDS011;34681;49.188;-0.374;2023-07-13T08:26:40;2.37;;;1.50;;
48861;SDS011;34681;49.188;-0.374;2023-07-13T08:29:06;2.70;;;1.60;;
48861;SDS011;34681;49.188;-0.374;2023-07-13T08:31:31;3.03;;;1.70;;
48861;SDS011;34681;49.188;-0.374;2023-07-13T08:33:56;1.77;;;1.50;;
48861;SDS011;34681;49.188;-0.374;2023-07-13T08:36:22;2.40;;;1.90;;
48861;SDS011;34681;49.188;-0.374;2023-07-13T08:38:47;7.50;;;2.50;;
48861;SDS011;34681;49.188;-0.374;2023-07-13T08:41:14;6.63;;;2.07;;
48861;SDS011;34681;49.188;-0.374;2023-07-13T08:43:42;6.87;;;2.57;;
48861;SDS011;34681;49.188;-0.374;2023-07-13T08:49:07;1.67;;;1.43;;
48861;SDS011;34681;49.188;-0.374;2023-07-13T08:54:32;1.83;;;1.53;;
48861;SDS011;34681;49.188;-0.374;2023-07-13T08:57:00;2.50;;;1.90;;
48861;SDS011;34681;49.188;-0.374;2023-07-13T08:59:30;2.40;;;1.90;;
48861;SDS011;34681;49.188;-0.374;2023-07-13T09:02:20;3.50;;;1.90;;
48861;SDS011;34681;49.188;-0.374;2023-07-13T09:05:18;2.13;;;1.23;;
48861;SDS011;34681;49.188;-0.374;2023-07-13T09:08:01;1.87;;;1.30;;
48861;SDS011;34681;49.188;-0.374;2023-07-13T09:10:48;1.50;;;1.40;;
48861;SDS011;34681;49.188;-0.374;2023-07-13T09:13:23;1.63;;;1.40;;
48861;SDS011;34681;49.188;-0.374;2023-07-13T09:16:24;2.07;;;1.70;;
48861;SDS011;34681;49.188;-0.374;2023-07-13T09:18:51;3.13;;;1.90;;
48861;SDS011;34681;49.188;-0.374;2023-07-13T09:21:26;2.80;;;1.40;;
48861;SDS011;34681;49.188;-0.374;2023-07-13T09:23:59;1.50;;;1.40;;
48861;SDS011;34681;49.188;-0.374;2023-07-13T09:26:29;2.47;;;1.50;;
48861;SDS011;34681;49.188;-0.374;2023-07-13T09:28:59;2.30;;;1.53;;
48861;SDS011;34681;49.188;-0.374;2023-07-13T09:31:41;1.37;;;1.27;;
48861;SDS011;34681;49.188;-0.374;2023-07-13T09:34:11;1.63;;;1.53;;
48861;SDS011;34681;49.188;-0.374;2023-07-13T09:36:37;2.13;;;1.60;;
48861;SDS011;34681;49.188;-0.374;2023-07-13T09:44:18;1.70;;;1.57;;
48861;SDS011;34681;49.188;-0.374;2023-07-13T09:46:56;1.73;;;1.50;;
48861;SDS011;34681;49.188;-0.374;2023-07-13T09:49:25;4.27;;;1.90;;
48861;SDS011;34681;49.188;-0.374;2023-07-13T09:52:00;4.23;;;1.87;;
48861;SDS011;34681;49.188;-0.374;2023-07-13T09:54:28;4.93;;;1.90;;
48861;SDS011;34681;49.188;-0.374;2023-07-13T09:56:58;7.03;;;2.33;;
48861;SDS011;34681;49.188;-0.374;2023-07-13T09:59:28;4.73;;;1.97;;
48861;SDS011;34681;49.188;-0.374;2023-07-13T10:01:57;8.20;;;2.23;;
48861;SDS011;34681;49.188;-0.374;2023-07-13T10:04:27;3.30;;;3.00;;
48861;SDS011;34681;49.188;-0.374;2023-07-13T10:07:05;3.77;;;1.60;;
48861;SDS011;34681;49.188;-0.374;2023-07-13T10:09:32;2.87;;;1.90;;
48861;SDS011;34681;49.188;-0.374;2023-07-13T10:11:58;2.20;;;1.60;;
48861;SDS011;34681;49.188;-0.374;2023-07-13T10:14:23;2.23;;;1.80;;
48861;SDS011;34681;49.188;-0.374;2023-07-13T10:16:51;2.83;;;1.80;;
48861;SDS011;34681;49.188;-0.374;2023-07-13T10:19:23;3.93;;;2.10;;
48861;SDS011;34681;49.188;-0.374;2023-07-13T10:24:25;1.70;;;1.60;;
48861;SDS011;34681;49.188;-0.374;2023-07-13T10:29:29;2.60;;;1.47;;
48861;SDS011;34681;49.188;-0.374;2023-07-13T10:32:00;1.77;;;1.67;;
48861;SDS011;34681;49.188;-0.374;2023-07-13T10:34:26;1.80;;;1.70;;
48861;SDS011;34681;49.188;-0.374;2023-07-13T10:36:52;1.60;;;1.50;;
48861;SDS011;34681;49.188;-0.374;2023-07-13T10:39:22;3.93;;;1.63;;
48861;SDS011;34681;49.188;-0.374;2023-07-13T10:41:55;1.47;;;1.37;;
48861;SDS011;34681;49.188;-0.374;2023-07-13T10:44:26;1.50;;;1.40;;
48861;SDS011;34681;49.188;-0.374;2023-07-13T10:47:11;1.33;;;1.23;;
48861;SDS011;34681;49.188;-0.374;2023-07-13T10:49:40;1.60;;;1.20;;
48861;SDS011;34681;49.188;-0.374;2023-07-13T10:52:20;1.63;;;1.47;;
48861;SDS011;34681;49.188;-0.374;2023-07-13T10:55:30;1.53;;;1.43;;
48861;SDS011;34681;49.188;-0.374;2023-07-13T10:57:59;1.30;;;1.20;;
48861;SDS011;34681;49.188;-0.374;2023-07-13T11:00:26;1.60;;;1.50;;
48861;SDS011;34681;49.188;-0.374;2023-07-13T11:02:58;1.67;;;1.57;;
48861;SDS011;34681;49.188;-0.374;2023-07-13T11:05:32;2.33;;;1.97;;
48861;SDS011;34681;49.188;-0.374;2023-07-13T11:13:59;1.60;;;1.50;;
48861;SDS011;34681;49.188;-0.374;2023-07-13T11:18:44;1.93;;;1.80;;
48861;SDS011;34681;49.188;-0.374;2023-07-13T11:23:52;4.20;;;4.00;;
48861;SDS011;34681;49.188;-0.374;2023-07-13T11:29:27;4.90;;;4.40;;
48861;SDS011;34681;49.188;-0.374;2023-07-13T11:32:10;4.97;;;4.50;;
48861;SDS011;34681;49.188;-0.374;2023-07-13T11:34:48;4.73;;;4.33;;
48861;SDS011;34681;49.188;-0.374;2023-07-13T11:37:16;3.77;;;3.57;;
48861;SDS011;34681;49.188;-0.374;2023-07-13T11:39:44;4.07;;;3.73;;
48861;SDS011;34681;49.188;-0.374;2023-07-13T11:42:15;3.60;;;3.30;;
48861;SDS011;34681;49.188;-0.374;2023-07-13T11:44:43;2.73;;;2.53;;
48861;SDS011;34681;49.188;-0.374;2023-07-13T11:47:20;3.37;;;3.17;;
48861;SDS011;34681;49.188;-0.374;2023-07-13T11:49:51;3.07;;;2.87;;
48861;SDS011;34681;49.188;-0.374;2023-07-13T11:52:26;3.20;;;3.00;;
48861;SDS011;34681;49.188;-0.374;2023-07-13T11:54:58;3.53;;;3.30;;
48861;SDS011;34681;49.188;-0.374;2023-07-13T11:57:27;3.17;;;2.97;;
48861;SDS011;34681;49.188;-0.374;2023-07-13T12:00:11;3.83;;;3.50;;
48861;SDS011;34681;49.188;-0.374;2023-07-13T12:02:43;3.53;;;3.33;;
48861;SDS011;34681;49.188;-0.374;2023-07-13T12:05:11;3.77;;;3.40;;
48861;SDS011;34681;49.188;-0.374;2023-07-13T12:07:39;4.50;;;2.83;;
48861;SDS011;34681;49.188;-0.374;2023-07-13T12:15:19;3.37;;;3.17;;
48861;SDS011;34681;49.188;-0.374;2023-07-13T12:17:47;4.00;;;3.70;;
48861;SDS011;34681;49.188;-0.374;2023-07-13T12:20:33;3.73;;;3.53;;
48861;SDS011;34681;49.188;-0.374;2023-07-13T12:23:04;2.90;;;2.70;;
48861;SDS011;34681;49.188;-0.374;2023-07-13T12:25:31;3.20;;;3.00;;
48861;SDS011;34681;49.188;-0.374;2023-07-13T12:27:56;3.27;;;2.97;;
48861;SDS011;34681;49.188;-0.374;2023-07-13T12:30:32;2.70;;;2.43;;
48861;SDS011;34681;49.188;-0.374;2023-07-13T12:33:07;2.20;;;2.10;;
48861;SDS011;34681;49.188;-0.374;2023-07-13T12:35:55;4.17;;;2.63;;
48861;SDS011;34681;49.188;-0.374;2023-07-13T12:38:21;2.63;;;2.43;;
48861;SDS011;34681;49.188;-0.374;2023-07-13T12:40:49;3.00;;;2.50;;
48861;SDS011;34681;49.188;-0.374;2023-07-13T12:43:16;2.33;;;2.13;;
48861;SDS011;34681;49.188;-0.374;2023-07-13T12:45:54;1.70;;;1.60;;
48861;SDS011;34681;49.188;-0.374;2023-07-13T12:48:20;2.10;;;1.80;;
48861;SDS011;34681;49.188;-0.374;2023-07-13T12:50:47;2.13;;;2.00;;
48861;SDS011;34681;49.188;-0.374;2023-07-13T12:53:19;2.23;;;2.13;;
48861;SDS011;34681;49.188;-0.374;2023-07-13T12:55:53;1.93;;;1.83;;
48861;SDS011;34681;49.188;-0.374;2023-07-13T12:58:28;2.60;;;2.20;;
48861;SDS011;34681;49.188;-0.374;2023-07-13T13:00:56;1.73;;;1.63;;
48861;SDS011;34681;49.188;-0.374;2023-07-13T13:03:33;2.13;;;1.80;;
48861;SDS011;34681;49.188;-0.374;2023-07-13T13:06:06;2.20;;;2.00;;
48861;SDS011;34681;49.188;-0.374;2023-07-13T13:08:45;2.00;;;1.70;;
48861;SDS011;34681;49.188;-0.374;2023-07-13T13:11:13;1.80;;;1.67;;
48861;SDS011;34681;49.188;-0.374;2023-07-13T13:13:41;1.80;;;1.70;;
48861;SDS011;34681;49.188;-0.374;2023-07-13T13:16:11;2.60;;;1.60;;
48861;SDS011;34681;49.188;-0.374;2023-07-13T13:18:42;5.03;;;2.30;;
48861;SDS011;34681;49.188;-0.374;2023-07-13T13:21:08;2.00;;;1.80;;
48861;SDS011;34681;49.188;-0.374;2023-07-13T13:23:36;1.77;;;1.67;;
48861;SDS011;34681;49.188;-0.374;2023-07-13T13:26:02;1.83;;;1.73;;
48861;SDS011;34681;49.188;-0.374;2023-07-13T13:28:31;1.90;;;1.80;;
48861;SDS011;34681;49.188;-0.374;2023-07-13T13:30:57;2.40;;;1.67;;
48861;SDS011;34681;49.188;-0.374;2023-07-13T13:33:22;2.37;;;1.63;;
48861;SDS011;34681;49.188;-0.374;2023-07-13T13:35:48;1.80;;;1.70;;
48861;SDS011;34681;49.188;-0.374;2023-07-13T13:38:14;1.93;;;1.83;;
48861;SDS011;34681;49.188;-0.374;2023-07-13T13:40:43;1.67;;;1.57;;
48861;SDS011;34681;49.188;-0.374;2023-07-13T13:45:52;1.73;;;1.63;;
48861;SDS011;34681;49.188;-0.374;2023-07-13T13:48:21;1.70;;;1.60;;
48861;SDS011;34681;49.188;-0.374;2023-07-13T13:50:55;1.60;;;1.50;;
48861;SDS011;34681;49.188;-0.374;2023-07-13T13:53:21;1.60;;;1.50;;
48861;SDS011;34681;49.188;-0.374;2023-07-13T13:55:48;1.37;;;1.27;;
48861;SDS011;34681;49.188;-0.374;2023-07-13T13:58:14;1.50;;;1.40;;
48861;SDS011;34681;49.188;-0.374;2023-07-13T14:00:39;1.40;;;1.30;;
48861;SDS011;34681;49.188;-0.374;2023-07-13T14:03:05;1.60;;;1.50;;
48861;SDS011;34681;49.188;-0.374;2023-07-13T14:05:39;1.70;;;1.60;;
48861;SDS011;34681;49.188;-0.374;2023-07-13T14:08:08;1.73;;;1.40;;
48861;SDS011;34681;49.188;-0.374;2023-07-13T14:10:39;1.70;;;1.60;;
48861;SDS011;34681;49.188;-0.374;2023-07-13T14:13:05;1.70;;;1.60;;
48861;SDS011;34681;49.188;-0.374;2023-07-13T14:15:35;1.73;;;1.63;;
48861;SDS011;34681;49.188;-0.374;2023-07-13T14:18:01;1.97;;;1.87;;
48861;SDS011;34681;49.188;-0.374;2023-07-13T14:20:26;1.83;;;1.73;;
48861;SDS011;34681;49.188;-0.374;2023-07-13T14:22:52;2.87;;;1.70;;
48861;SDS011;34681;49.188;-0.374;2023-07-13T14:25:18;1.90;;;1.70;;
48861;SDS011;34681;49.188;-0.374;2023-07-13T14:27:53;2.30;;;2.10;;
48861;SDS011;34681;49.188;-0.374;2023-07-13T14:30:23;1.87;;;1.77;;
48861;SDS011;34681;49.188;-0.374;2023-07-13T14:32:50;1.67;;;1.57;;
48861;SDS011;34681;49.188;-0.374;2023-07-13T14:35:17;2.20;;;2.00;;
48861;SDS011;34681;49.188;-0.374;2023-07-13T14:37:45;1.60;;;1.50;;
48861;SDS011;34681;49.188;-0.374;2023-07-13T14:40:15;2.67;;;1.83;;
48861;SDS011;34681;49.188;-0.374;2023-07-13T14:42:50;1.73;;;1.63;;
48861;SDS011;34681;49.188;-0.374;2023-07-13T14:45:17;1.97;;;1.70;;
48861;SDS011;34681;49.188;-0.374;2023-07-13T14:47:43;1.80;;;1.70;;
48861;SDS011;34681;49.188;-0.374;2023-07-13T14:50:27;1.73;;;1.63;;
48861;SDS011;34681;49.188;-0.374;2023-07-13T14:52:56;2.10;;;2.00;;
48861;SDS011;34681;49.188;-0.374;2023-07-13T14:55:21;3.10;;;2.37;;
48861;SDS011;34681;49.188;-0.374;2023-07-13T14:57:47;2.30;;;2.20;;
48861;SDS011;34681;49.188;-0.374;2023-07-13T15:00:15;2.40;;;2.20;;
48861;SDS011;34681;49.188;-0.374;2023-07-13T15:02:43;2.17;;;1.83;;
48861;SDS011;34681;49.188;-0.374;2023-07-13T15:05:19;1.87;;;1.77;;
48861;SDS011;34681;49.188;-0.374;2023-07-13T15:07:48;2.30;;;2.10;;
48861;SDS011;34681;49.188;-0.374;2023-07-13T15:10:15;1.90;;;1.80;;
48861;SDS011;34681;49.188;-0.374;2023-07-13T15:12:50;1.90;;;1.80;;
48861;SDS011;34681;49.188;-0.374;2023-07-13T15:15:16;2.43;;;2.10;;
48861;SDS011;34681;49.188;-0.374;2023-07-13T15:17:43;2.20;;;2.00;;
48861;SDS011;34681;49.188;-0.374;2023-07-13T15:20:26;2.07;;;1.97;;